Latest Weather Observations for Khancoban

IDN60801

Issued at 4:05 pm EDT Monday 24 November 2014 (issued every 30 minutes, with the page automatically refreshed every 10 minutes)

About weather observations | Map of weather stations | Latest weather observations for NSW | Other Formats
Station Details ID: 072162 Name: KHANCOBAN AWS Lat: -36.23 Lon: 148.14 Height: 339.3 m
Data from the previous 72 hours. | See also: Recent months at Khancoban
Date/Time
EDT
Temp
°C
App
Temp
°C
Dew
Point
Rel
Hum
%
Delta-T
°C
Wind Press
QNH
hPa
Press
MSL
hPa
Rain
since 9 am
mm
Dir
 
Spd
km/h
Gust
km/h
Spd
kts
Gust
kts
24/04:00pm 21.6 24.8 21.3 98 0.2 SSE 6 7 3 4 1010.2 1009.3 10.8
24/03:30pm 20.4 22.5 20.2 99 0.1 SW 9 13 5 7 1010.5 1009.6 10.8
24/03:00pm 20.6 23.6 18.5 88 1.3 CALM 0 0 0 0 1010.8 1009.9 10.6
24/02:30pm 19.8 21.7 19.8 100 0.0 NNE 9 13 5 7 1012.3 1011.4 10.2
24/02:00pm 19.4 20.4 19.4 100 0.0 N 13 20 7 11 1013.0 1012.1 8.4
24/01:30pm 19.1 20.3 19.1 100 0.0 NNW 11 20 6 11 1013.4 1012.5 5.0
24/01:00pm 19.4 20.0 19.4 100 0.0 NNW 15 26 8 14 1013.2 1012.3 1.4
24/12:30pm 21.5 19.7 16.0 71 3.4 NNW 20 35 11 19 1012.9 1012.0 0.0
24/12:00pm 24.6 23.5 15.2 55 5.7 N 15 20 8 11 1012.5 1011.6 0.0
24/11:30am 25.1 23.4 14.6 52 6.4 N 17 26 9 14 1013.0 1012.1 0.0
24/11:00am 25.8 23.5 14.0 48 7.1 N 19 24 10 13 1013.8 1013.0 0.0
24/10:30am 25.8 27.0 15.8 54 6.2 WNW 4 9 2 5 1014.1 1013.3 0.0
24/10:00am 24.0 25.4 16.5 63 4.7 S 4 7 2 4 1014.6 1013.8 0.0
24/09:30am 22.5 24.2 18.1 76 2.8 NNE 6 9 3 5 1014.6 1013.8 0.0
24/09:00am 21.6 23.0 17.4 77 2.6 W 6 9 3 5 1014.8 1014.0 0.0
24/08:30am 20.6 22.3 17.2 81 2.1 E 4 7 2 4 1014.9 1014.1 0.0
24/08:00am 19.7 21.3 16.9 84 1.7 S 4 7 2 4 1014.7 1013.9 0.0
24/07:30am 19.5 21.9 16.9 85 1.6 CALM 0 0 0 0 1014.7 1013.9 0.0
24/07:00am 18.6 19.9 17.6 94 0.6 NNE 7 9 4 5 1014.7 1013.9 0.0
24/06:30am 17.7 19.6 16.7 94 0.6 NNE 2 6 1 3 1014.1 1013.3 0.0
24/06:00am 17.6 18.3 16.1 91 0.9 SSE 7 9 4 5 1013.9 1013.1 0.0
24/05:30am 17.3 18.3 16.3 94 0.6 NE 6 7 3 4 1013.5 1012.6 0.0
24/05:00am 18.0 18.9 16.7 92 0.8 SSE 7 13 4 7 1013.0 1012.1 0.0
24/04:30am 18.6 20.1 15.8 84 1.7 N 2 9 1 5 1013.1 1012.2 0.0
24/04:00am 19.5 20.4 16.5 83 1.8 SSW 7 9 4 5 1013.6 1012.7 0.0
24/03:30am 20.5 21.3 16.3 77 2.6 ESE 7 13 4 7 1013.7 1012.8 0.0
24/03:00am 20.5 21.4 16.7 79 2.3 ESE 7 11 4 6 1013.7 1012.8 0.0
24/02:30am 20.0 22.4 17.0 83 1.8 CALM 0 0 0 0 1013.4 1012.5 0.0
24/02:00am 20.6 21.6 16.4 77 2.6 SE 6 9 3 5 1013.1 1012.2 0.0
24/01:30am 20.8 21.2 16.2 75 2.8 SW 9 15 5 8 1013.3 1012.4 0.0
24/01:00am 21.8 22.2 15.4 67 3.9 E 7 9 4 5 1014.2 1013.4 0.0
24/12:30am 21.3 21.9 15.8 71 3.3 W 7 15 4 8 1014.6 1013.8 0.0
24/12:00am 22.3 21.7 14.7 62 4.5 SE 11 13 6 7 1015.3 1014.4 0.0
 
Date/Time
EDT
Temp
°C
App
Temp
°C
Dew
Point
Rel
Hum
%
Delta-T
°C
Wind Press
QNH
hPa
Press
MSL
hPa
Rain
since 9 am
mm
Dir
 
Spd
km/h
Gust
km/h
Spd
kts
Gust
kts
23/11:30pm 22.1 23.4 14.0 60 4.8 CALM 0 0 0 0 1014.0 1013.2 0.0
23/11:00pm 22.0 21.8 13.1 57 5.2 SSE 6 9 3 5 1014.4 1013.6 0.0
23/10:30pm 24.3 22.9 12.3 47 7.0 NNE 11 17 6 9 1013.9 1013.1 0.0
23/10:00pm 26.1 23.7 11.4 39 8.5 NE 15 17 8 9 1013.5 1012.6 0.0
23/09:30pm 25.7 24.1 11.5 41 8.2 N 11 17 6 9 1013.1 1012.2 0.0
23/09:00pm 27.5 25.7 10.7 35 9.6 NNE 11 17 6 9 1012.2 1011.3 0.0
23/08:30pm 27.8 26.3 10.5 34 9.9 NNE 9 13 5 7 1011.8 1011.0 0.0
23/08:00pm 28.2 26.3 10.4 33 10.2 N 11 13 6 7 1011.4 1010.6 0.0
23/07:30pm 29.1 26.6 9.8 30 11.0 NW 13 20 7 11 1011.1 1010.2 0.0
23/07:00pm 31.8 27.3 8.7 24 13.1 W 22 30 12 16 1010.6 1009.7 0.0
23/06:30pm 33.0 29.2 9.1 23 13.7 WNW 19 28 10 15 1010.2 1009.3 0.0
23/06:00pm 33.8 29.6 8.4 21 14.5 NW 20 32 11 17 1009.7 1008.8 0.0
23/05:30pm 34.9 30.8 8.6 20 15.1 WSW 20 33 11 18 1009.6 1008.7 0.0
23/05:00pm 35.2 31.2 10.3 22 14.7 WSW 22 32 12 17 1009.5 1008.6 0.0
23/04:30pm 35.3 29.4 7.4 18 15.7 W 28 41 15 22 1009.6 1008.7 0.0
23/04:00pm 35.5 31.1 9.1 20 15.3 WNW 22 33 12 18 1009.7 1008.8 0.0
23/03:30pm 35.6 31.6 10.6 22 14.8 NNW 22 30 12 16 1009.6 1008.7 0.0
23/03:00pm 35.6 33.0 11.9 24 14.3 W 17 30 9 16 1009.9 1009.0 0.0
23/02:30pm 34.7 34.6 14.0 28 12.9 W 7 13 4 7 1010.2 1009.3 0.0
23/02:00pm 33.9 33.0 14.9 32 11.9 WNW 13 22 7 12 1010.4 1009.5 0.0
23/01:30pm 32.7 32.4 14.3 32 11.4 SSW 9 17 5 9 1010.7 1009.8 0.0
23/01:00pm 31.7 32.0 14.4 35 10.7 SW 6 9 3 5 1011.1 1010.2 0.0
23/12:30pm 30.7 30.8 15.5 39 9.5 WNW 9 13 5 7 1011.4 1010.6 0.0
23/12:00pm 30.0 30.6 15.3 41 9.2 NW 6 13 3 7 1011.6 1010.8 0.0
23/11:30am 28.0 29.0 16.3 49 7.3 WSW 6 9 3 5 1012.1 1011.2 0.0
23/11:00am 26.4 26.5 15.4 50 6.8 SSW 9 20 5 11 1012.2 1011.3 0.0
23/10:30am 25.8 26.7 15.2 52 6.5 SSW 4 9 2 5 1012.5 1011.6 0.0
23/10:00am 24.4 25.3 13.9 52 6.3 WSW 2 6 1 3 1012.8 1011.9 0.0
23/09:30am 23.5 23.6 13.9 55 5.7 W 6 11 3 6 1012.9 1012.0 0.0
23/09:00am 22.0 22.8 14.9 64 4.3 W 4 7 2 4 1012.8 1011.9 0.0
23/08:30am 20.1 20.5 13.8 67 3.7 NW 4 7 2 4 1012.6 1011.7 0.0
23/08:00am 18.7 19.9 15.0 79 2.2 ENE 2 7 1 4 1012.3 1011.4 0.0
23/07:30am 16.9 17.9 16.3 96 0.4 NW 6 7 3 4 1012.3 1011.4 0.0
23/07:00am 16.0 18.0 16.0 100 0.0 CALM 0 2 0 1 1012.1 1011.2 0.0
23/06:30am 14.9 16.5 14.9 100 0.0 CALM 0 0 0 0 1011.9 1011.1 0.0
23/06:00am 14.6 14.9 14.6 100 0.0 ENE 6 11 3 6 1012.1 1011.2 0.0
23/05:30am 15.6 15.7 14.5 93 0.6 E 7 13 4 7 1012.5 1011.6 0.0
23/05:00am 16.2 14.9 14.9 92 0.8 ENE 15 24 8 13 1012.6 1011.7 0.0
23/04:30am 14.7 15.1 13.6 93 0.6 NNW 4 9 2 5 1012.7 1011.8 0.0
23/04:00am 15.2 15.4 14.1 93 0.6 SE 6 7 3 4 1012.5 1011.6 0.0
23/03:30am 14.8 14.5 12.8 88 1.1 NNE 6 7 3 4 1011.4 1010.6 0.0
23/03:00am 15.2 15.0 13.1 87 1.2 NNW 6 9 3 5 1011.4 1010.6 0.0
23/02:30am 16.3 16.3 13.6 84 1.5 SSE 6 7 3 4 1011.2 1010.3 0.0
23/02:00am 16.4 16.9 12.8 79 2.0 SE 2 9 1 5 1012.2 1011.3 0.0
23/01:30am 16.5 16.2 13.4 82 1.8 W 7 9 4 5 1013.0 1012.1 0.0
23/01:00am 16.8 16.8 12.5 76 2.4 NE 4 13 2 7 1013.2 1012.3 0.0
23/12:30am 16.7 16.2 12.8 78 2.2 SW 7 13 4 7 1013.0 1012.1 0.0
23/12:00am 18.1 18.3 13.0 72 2.9 SSE 4 9 2 5 1013.6 1012.7 0.0
 
Date/Time
EDT
Temp
°C
App
Temp
°C
Dew
Point
Rel
Hum
%
Delta-T
°C
Wind Press
QNH
hPa
Press
MSL
hPa
Rain
since 9 am
mm
Dir
 
Spd
km/h
Gust
km/h
Spd
kts
Gust
kts
22/11:30pm 17.9 18.5 14.2 79 2.2 E 4 11 2 6 1013.2 1012.3 0.0
22/11:00pm 18.8 19.0 13.0 69 3.3 SE 4 11 2 6 1013.4 1012.5 0.0
22/10:30pm 17.9 18.5 13.2 74 2.7 NNE 2 9 1 5 1013.5 1012.6 0.0
22/10:00pm 18.6 18.7 12.8 69 3.3 S 4 7 2 4 1013.0 1012.1 0.0
22/09:30pm 19.4 19.3 14.0 71 3.2 NNE 7 9 4 5 1012.6 1011.7 0.0
22/09:00pm 20.2 20.9 13.4 65 3.9 SE 2 9 1 5 1012.8 1011.9 0.0
22/08:30pm 21.0 20.6 14.2 65 4.0 S 9 13 5 7 1011.9 1011.1 0.0
22/08:00pm 21.5 21.2 13.2 59 4.8 SE 7 9 4 5 1011.8 1011.0 0.0
22/07:30pm 23.8 24.6 13.6 52 6.0 SSE 2 7 1 4 1011.5 1010.7 0.0
22/07:00pm 25.3 26.7 15.3 54 6.1 SSE 2 7 1 4 1011.1 1010.2 0.0
22/06:30pm 27.0 27.4 14.7 47 7.5 ENE 6 9 3 5 1010.4 1009.5 0.0
22/06:00pm 28.7 27.2 10.4 32 10.5 S 9 11 5 6 1010.5 1009.6 0.0
22/05:30pm 30.1 27.8 10.6 30 11.3 WSW 13 20 7 11 1010.8 1009.9 0.0
22/05:00pm 29.8 28.2 8.2 26 12.0 WSW 6 9 3 5 1010.8 1009.9 0.0
22/04:30pm 30.9 29.8 8.6 25 12.6 NE 4 9 2 5 1011.0 1010.1 0.0
22/04:00pm 30.3 29.0 9.2 27 12.0 W 6 13 3 7 1011.5 1010.7 0.0
22/03:30pm 30.0 27.7 9.0 27 11.9 S 11 17 6 9 1011.5 1010.7 0.0
22/03:00pm 30.0 28.1 9.0 27 11.9 NW 9 15 5 8 1012.1 1011.2 0.0
22/02:30pm 29.8 27.7 9.9 29 11.4 W 11 19 6 10 1012.5 1011.6 0.0
22/02:00pm 29.2 26.7 9.8 30 11.1 W 13 20 7 11 1012.5 1011.6 0.0
22/01:30pm 28.5 26.1 7.1 26 11.6 WNW 9 17 5 9 1012.5 1011.6 0.0
22/01:00pm 27.7 24.5 7.0 27 11.2 W 13 20 7 11 1012.9 1012.0 0.0
22/12:30pm 27.7 24.2 8.6 30 10.6 W 17 22 9 12 1012.8 1011.9 0.0
22/12:00pm 27.3 25.4 10.5 35 9.6 W 11 17 6 9 1013.1 1012.2 0.0
22/11:30am 25.7 24.8 10.7 39 8.5 WSW 6 11 3 6 1013.3 1012.4 0.0
22/11:00am 24.8 23.8 10.3 40 8.2 WSW 6 9 3 5 1013.6 1012.7 0.0
22/10:30am 23.2 22.2 10.3 44 7.2 NW 6 11 3 6 1013.8 1013.0 0.0
22/10:00am 21.7 21.0 10.2 48 6.4 W 4 7 2 4 1014.1 1013.3 0.0
22/09:30am 20.4 19.2 9.6 50 5.9 N 6 7 3 4 1014.3 1013.5 0.0
22/09:00am 18.6 19.0 11.2 62 4.1 CALM 0 6 0 3 1014.6 1013.8 0.0
22/08:30am 17.2 17.1 10.8 66 3.5 S 2 7 1 4 1014.8 1014.0 0.0
22/08:00am 16.1 16.7 11.9 76 2.3 CALM 0 0 0 0 1014.8 1014.0 0.0
22/07:30am 13.7 14.1 11.4 86 1.2 CALM 0 0 0 0 1014.7 1013.9 0.0
22/07:00am 12.1 12.8 12.1 100 0.0 CALM 0 0 0 0 1014.3 1013.5 0.0
22/06:30am 10.9 11.2 10.9 100 0.0 CALM 0 0 0 0 1014.0 1013.2 0.0
22/06:00am 10.0 10.1 10.0 100 0.0 CALM 0 0 0 0 1013.7 1012.8 0.0
22/05:30am 10.2 10.3 10.0 99 0.1 CALM 0 4 0 2 1013.2 1012.3 0.0
22/05:00am 10.4 10.5 10.2 99 0.1 CALM 0 0 0 0 1012.8 1011.9 0.0
22/04:30am 10.4 10.5 10.2 99 0.1 CALM 0 0 0 0 1012.8 1011.9 0.0
22/04:00am 11.2 10.4 11.0 99 0.1 SSE 6 7 3 4 1012.8 1011.9 0.0
22/03:30am 11.3 11.3 11.0 98 0.2 NE 2 6 1 3 1012.6 1011.7 0.0
22/03:00am 11.3 10.9 11.0 98 0.2 NE 4 6 2 3 1012.5 1011.6 0.0
22/02:30am 11.3 11.5 10.7 96 0.3 CALM 0 6 0 3 1012.5 1011.6 0.0
22/02:00am 11.4 10.8 10.5 94 0.5 NE 4 7 2 4 1012.8 1011.9 0.0
22/01:30am 12.1 12.1 11.0 93 0.6 ENE 2 7 1 4 1012.8 1011.9 0.0
22/01:00am 12.0 11.9 10.9 93 0.6 NE 2 7 1 4 1013.0 1012.1 0.0
22/12:30am 12.9 13.2 11.0 88 1.0 CALM 0 0 0 0 1013.3 1012.4 0.0
22/12:00am 13.3 12.8 10.8 85 1.3 NE 4 7 2 4 1013.3 1012.4 0.0
 
Date/Time
EDT
Temp
°C
App
Temp
°C
Dew
Point
Rel
Hum
%
Delta-T
°C
Wind Press
QNH
hPa
Press
MSL
hPa
Rain
since 9 am
mm
Dir
 
Spd
km/h
Gust
km/h
Spd
kts
Gust
kts
21/11:30pm 14.2 14.5 11.0 81 1.7 CALM 0 0 0 0 1013.3 1012.4 0.0
21/11:00pm 14.1 13.9 10.5 79 1.9 ESE 2 7 1 4 1013.2 1012.3 0.0
21/10:30pm 14.3 14.4 10.1 76 2.2 CALM 0 0 0 0 1012.8 1011.9 0.0
21/10:00pm 15.5 15.6 10.3 71 2.8 CALM 0 0 0 0 1012.7 1011.8 0.0
21/09:30pm 16.5 15.1 9.4 63 3.8 S 7 11 4 6 1012.2 1011.3 0.0
21/09:00pm 17.4 17.2 9.1 58 4.4 CALM 0 0 0 0 1011.7 1010.9 0.0
21/08:30pm 19.4 18.6 8.1 48 5.9 NE 2 6 1 3 1011.3 1010.5 0.0
21/08:00pm 21.5 20.0 8.4 43 7.0 NNE 6 9 3 5 1010.8 1009.9 0.0
21/07:30pm 24.1 22.4 8.5 37 8.5 N 7 11 4 6 1010.3 1009.4 0.0
21/07:00pm 26.2 24.0 9.5 35 9.3 WNW 11 13 6 7 1009.8 1008.9 0.0
21/06:30pm 27.2 24.5 9.1 32 10.1 WNW 13 19 7 10 1009.4 1008.5 0.0
21/06:00pm 28.0 23.8 8.3 29 10.9 W 20 30 11 16 1009.2 1008.3 0.0
21/05:30pm 28.3 24.2 8.6 29 11.0 W 20 28 11 15 1008.8 1008.0 0.0
21/05:00pm 28.6 24.5 8.8 29 11.1 W 20 32 11 17 1008.7 1007.9 0.0
21/04:30pm 28.8 24.9 9.5 30 10.9 NW 20 30 11 16 1008.6 1007.7 0.0

Other Formats:

Comma delimited format used in spreadsheet applications
http://www.bom.gov.au/fwo/IDN60801/IDN60801.94919.axf

JavaScript Object Notation format (JSON) in row-major order
http://www.bom.gov.au/fwo/IDN60801/IDN60801.94919.json